sensor_id;sensor_type;location;lat;lon;timestamp;temperature;humidity
52075;DHT22;38075;53.172;5.446;2022-09-12T00:01:27;12.40;99.90
52075;DHT22;38075;53.172;5.446;2022-09-12T00:03:55;12.30;99.90
52075;DHT22;38075;53.172;5.446;2022-09-12T00:06:28;12.30;99.90
52075;DHT22;38075;53.172;5.446;2022-09-12T00:08:55;12.10;99.90
52075;DHT22;38075;53.172;5.446;2022-09-12T00:11:21;12.10;99.90
52075;DHT22;38075;53.172;5.446;2022-09-12T00:13:47;11.90;99.90
52075;DHT22;38075;53.172;5.446;2022-09-12T00:16:14;11.80;99.90
52075;DHT22;38075;53.172;5.446;2022-09-12T00:18:41;11.80;99.90
52075;DHT22;38075;53.172;5.446;2022-09-12T00:21:06;11.70;99.90
52075;DHT22;38075;53.172;5.446;2022-09-12T00:23:32;11.70;99.90
52075;DHT22;38075;53.172;5.446;2022-09-12T00:25:58;11.70;99.90
52075;DHT22;38075;53.172;5.446;2022-09-12T00:28:24;12.00;99.90
52075;DHT22;38075;53.172;5.446;2022-09-12T00:30:49;11.80;99.90
52075;DHT22;38075;53.172;5.446;2022-09-12T00:33:16;11.80;99.90
52075;DHT22;38075;53.172;5.446;2022-09-12T00:35:43;11.80;99.90
52075;DHT22;38075;53.172;5.446;2022-09-12T00:38:56;11.70;99.90
52075;DHT22;38075;53.172;5.446;2022-09-12T00:41:31;11.80;99.90
52075;DHT22;38075;53.172;5.446;2022-09-12T00:46:49;11.70;99.90
52075;DHT22;38075;53.172;5.446;2022-09-12T00:49:32;11.60;99.90
52075;DHT22;38075;53.172;5.446;2022-09-12T00:52:08;11.60;99.90
52075;DHT22;38075;53.172;5.446;2022-09-12T00:55:25;11.50;99.90
52075;DHT22;38075;53.172;5.446;2022-09-12T00:57:31;11.60;99.90
52075;DHT22;38075;53.172;5.446;2022-09-12T01:00:06;11.50;99.90
52075;DHT22;38075;53.172;5.446;2022-09-12T01:02:48;11.60;99.90
52075;DHT22;38075;53.172;5.446;2022-09-12T01:05:15;11.60;99.90
52075;DHT22;38075;53.172;5.446;2022-09-12T01:07:41;11.70;99.90
52075;DHT22;38075;53.172;5.446;2022-09-12T01:10:09;11.70;99.90
52075;DHT22;38075;53.172;5.446;2022-09-12T01:12:38;11.70;99.90
52075;DHT22;38075;53.172;5.446;2022-09-12T01:15:04;11.70;99.90
52075;DHT22;38075;53.172;5.446;2022-09-12T01:17:47;11.70;99.90
52075;DHT22;38075;53.172;5.446;2022-09-12T01:20:34;11.70;99.90
52075;DHT22;38075;53.172;5.446;2022-09-12T01:26:45;11.70;99.90
52075;DHT22;38075;53.172;5.446;2022-09-12T01:35:18;11.70;99.90
52075;DHT22;38075;53.172;5.446;2022-09-12T01:40:30;11.70;99.90
52075;DHT22;38075;53.172;5.446;2022-09-12T01:43:23;11.70;99.90
52075;DHT22;38075;53.172;5.446;2022-09-12T01:48:32;11.80;99.90
52075;DHT22;38075;53.172;5.446;2022-09-12T01:51:25;11.80;99.90
52075;DHT22;38075;53.172;5.446;2022-09-12T01:53:59;11.80;99.90
52075;DHT22;38075;53.172;5.446;2022-09-12T01:56:31;11.90;99.90
52075;DHT22;38075;53.172;5.446;2022-09-12T01:59:04;11.90;99.90
52075;DHT22;38075;53.172;5.446;2022-09-12T02:01:32;11.90;99.90
52075;DHT22;38075;53.172;5.446;2022-09-12T02:04:07;11.90;99.90
52075;DHT22;38075;53.172;5.446;2022-09-12T02:06:43;11.80;99.90
52075;DHT22;38075;53.172;5.446;2022-09-12T02:09:18;11.80;99.90
52075;DHT22;38075;53.172;5.446;2022-09-12T02:11:52;11.80;99.90
52075;DHT22;38075;53.172;5.446;2022-09-12T02:14:24;11.80;99.90
52075;DHT22;38075;53.172;5.446;2022-09-12T02:17:04;11.80;99.90
52075;DHT22;38075;53.172;5.446;2022-09-12T02:19:58;11.80;99.90
52075;DHT22;38075;53.172;5.446;2022-09-12T02:22:26;11.80;99.90
52075;DHT22;38075;53.172;5.446;2022-09-12T02:24:58;11.60;99.90
52075;DHT22;38075;53.172;5.446;2022-09-12T02:27:36;11.50;99.90
52075;DHT22;38075;53.172;5.446;2022-09-12T02:30:04;11.40;99.90
52075;DHT22;38075;53.172;5.446;2022-09-12T02:32:42;11.40;99.90
52075;DHT22;38075;53.172;5.446;2022-09-12T02:40:18;11.50;99.90
52075;DHT22;38075;53.172;5.446;2022-09-12T02:42:44;11.50;99.90
52075;DHT22;38075;53.172;5.446;2022-09-12T02:45:10;11.50;99.90
52075;DHT22;38075;53.172;5.446;2022-09-12T02:47:41;11.90;99.90
52075;DHT22;38075;53.172;5.446;2022-09-12T02:50:08;11.50;99.90
52075;DHT22;38075;53.172;5.446;2022-09-12T02:52:34;11.60;99.90
52075;DHT22;38075;53.172;5.446;2022-09-12T02:55:01;11.50;99.90
52075;DHT22;38075;53.172;5.446;2022-09-12T02:57:29;11.50;99.90
52075;DHT22;38075;53.172;5.446;2022-09-12T02:59:58;11.30;99.90
52075;DHT22;38075;53.172;5.446;2022-09-12T03:05:23;11.30;99.90
52075;DHT22;38075;53.172;5.446;2022-09-12T03:08:03;11.20;99.90
52075;DHT22;38075;53.172;5.446;2022-09-12T03:10:58;11.20;99.90
52075;DHT22;38075;53.172;5.446;2022-09-12T03:16:16;11.40;1.00
52075;DHT22;38075;53.172;5.446;2022-09-12T03:24:30;11.60;1.00
52075;DHT22;38075;53.172;5.446;2022-09-12T03:27:11;11.70;1.00
52075;DHT22;38075;53.172;5.446;2022-09-12T03:29:39;11.70;1.00
52075;DHT22;38075;53.172;5.446;2022-09-12T03:32:05;11.80;1.00
52075;DHT22;38075;53.172;5.446;2022-09-12T03:34:32;11.90;1.00
52075;DHT22;38075;53.172;5.446;2022-09-12T03:36:58;12.00;1.00
52075;DHT22;38075;53.172;5.446;2022-09-12T03:39:24;12.10;1.00
52075;DHT22;38075;53.172;5.446;2022-09-12T03:41:51;12.20;1.00
52075;DHT22;38075;53.172;5.446;2022-09-12T03:44:17;12.30;1.00
52075;DHT22;38075;53.172;5.446;2022-09-12T03:46:43;12.50;1.00
52075;DHT22;38075;53.172;5.446;2022-09-12T03:49:09;12.30;1.00
52075;DHT22;38075;53.172;5.446;2022-09-12T03:51:37;12.40;1.00
52075;DHT22;38075;53.172;5.446;2022-09-12T03:54:02;12.40;1.00
52075;DHT22;38075;53.172;5.446;2022-09-12T03:56:28;12.50;1.00
52075;DHT22;38075;53.172;5.446;2022-09-12T03:58:54;12.60;1.00
52075;DHT22;38075;53.172;5.446;2022-09-12T04:01:20;12.80;1.00
52075;DHT22;38075;53.172;5.446;2022-09-12T04:03:50;12.80;1.00
52075;DHT22;38075;53.172;5.446;2022-09-12T04:06:21;12.90;1.00
52075;DHT22;38075;53.172;5.446;2022-09-12T04:08:48;13.00;1.00
52075;DHT22;38075;53.172;5.446;2022-09-12T04:11:15;13.00;1.00
52075;DHT22;38075;53.172;5.446;2022-09-12T04:13:43;13.10;1.00
52075;DHT22;38075;53.172;5.446;2022-09-12T04:16:09;13.50;1.00
52075;DHT22;38075;53.172;5.446;2022-09-12T04:18:35;13.20;1.00
52075;DHT22;38075;53.172;5.446;2022-09-12T04:21:13;13.30;1.00
52075;DHT22;38075;53.172;5.446;2022-09-12T04:23:39;13.40;1.00
52075;DHT22;38075;53.172;5.446;2022-09-12T04:26:05;13.50;1.00
52075;DHT22;38075;53.172;5.446;2022-09-12T04:28:31;13.60;1.00
52075;DHT22;38075;53.172;5.446;2022-09-12T04:31:02;13.80;1.00
52075;DHT22;38075;53.172;5.446;2022-09-12T04:33:30;13.80;1.00
52075;DHT22;38075;53.172;5.446;2022-09-12T04:36:01;14.00;1.00
52075;DHT22;38075;53.172;5.446;2022-09-12T04:38:26;14.20;1.00
52075;DHT22;38075;53.172;5.446;2022-09-12T04:40:52;13.80;1.00
52075;DHT22;38075;53.172;5.446;2022-09-12T04:43:18;13.80;1.00
52075;DHT22;38075;53.172;5.446;2022-09-12T04:45:43;13.90;1.00
52075;DHT22;38075;53.172;5.446;2022-09-12T04:48:09;13.90;1.00
52075;DHT22;38075;53.172;5.446;2022-09-12T04:50:34;13.90;1.00
52075;DHT22;38075;53.172;5.446;2022-09-12T04:53:00;13.90;1.00
52075;DHT22;38075;53.172;5.446;2022-09-12T04:55:26;13.90;1.00
52075;DHT22;38075;53.172;5.446;2022-09-12T04:57:52;14.10;1.00
52075;DHT22;38075;53.172;5.446;2022-09-12T05:00:18;14.30;1.00
52075;DHT22;38075;53.172;5.446;2022-09-12T05:02:43;14.20;1.00
52075;DHT22;38075;53.172;5.446;2022-09-12T05:05:09;14.60;1.00
52075;DHT22;38075;53.172;5.446;2022-09-12T05:07:36;14.10;1.00
52075;DHT22;38075;53.172;5.446;2022-09-12T05:10:02;14.40;1.00
52075;DHT22;38075;53.172;5.446;2022-09-12T05:12:29;14.10;1.00
52075;DHT22;38075;53.172;5.446;2022-09-12T05:14:55;14.10;1.00
52075;DHT22;38075;53.172;5.446;2022-09-12T05:17:21;14.10;1.00
52075;DHT22;38075;53.172;5.446;2022-09-12T05:19:47;14.10;1.00
52075;DHT22;38075;53.172;5.446;2022-09-12T05:22:13;14.00;1.00
52075;DHT22;38075;53.172;5.446;2022-09-12T05:24:38;14.10;1.00
52075;DHT22;38075;53.172;5.446;2022-09-12T05:27:08;14.10;1.00
52075;DHT22;38075;53.172;5.446;2022-09-12T05:29:33;14.00;1.00
52075;DHT22;38075;53.172;5.446;2022-09-12T05:31:59;14.00;1.00
52075;DHT22;38075;53.172;5.446;2022-09-12T05:34:25;14.00;1.00
52075;DHT22;38075;53.172;5.446;2022-09-12T05:36:52;14.10;1.00
52075;DHT22;38075;53.172;5.446;2022-09-12T05:39:18;14.20;1.00
52075;DHT22;38075;53.172;5.446;2022-09-12T05:41:44;14.30;1.00
52075;DHT22;38075;53.172;5.446;2022-09-12T05:44:11;14.30;1.00
52075;DHT22;38075;53.172;5.446;2022-09-12T05:46:40;14.40;1.00
52075;DHT22;38075;53.172;5.446;2022-09-12T05:49:11;14.50;1.00
52075;DHT22;38075;53.172;5.446;2022-09-12T05:51:39;14.50;1.00
52075;DHT22;38075;53.172;5.446;2022-09-12T05:54:07;15.00;1.00
52075;DHT22;38075;53.172;5.446;2022-09-12T05:56:37;14.70;1.00
52075;DHT22;38075;53.172;5.446;2022-09-12T05:59:05;14.80;1.00
52075;DHT22;38075;53.172;5.446;2022-09-12T06:01:34;14.90;1.00
52075;DHT22;38075;53.172;5.446;2022-09-12T06:04:03;14.90;1.00
52075;DHT22;38075;53.172;5.446;2022-09-12T06:06:30;14.90;1.00
52075;DHT22;38075;53.172;5.446;2022-09-12T06:09:00;15.00;1.00
52075;DHT22;38075;53.172;5.446;2022-09-12T06:11:28;15.10;1.00
52075;DHT22;38075;53.172;5.446;2022-09-12T06:13:57;15.50;1.00
52075;DHT22;38075;53.172;5.446;2022-09-12T06:19:01;15.30;1.00
52075;DHT22;38075;53.172;5.446;2022-09-12T06:21:28;15.30;1.00
52075;DHT22;38075;53.172;5.446;2022-09-12T06:23:55;15.30;1.00
52075;DHT22;38075;53.172;5.446;2022-09-12T06:26:23;15.40;1.00
52075;DHT22;38075;53.172;5.446;2022-09-12T06:28:50;15.40;1.00
52075;DHT22;38075;53.172;5.446;2022-09-12T06:31:21;15.40;1.00
52075;DHT22;38075;53.172;5.446;2022-09-12T06:33:49;15.40;1.00
52075;DHT22;38075;53.172;5.446;2022-09-12T06:36:20;15.50;1.00
52075;DHT22;38075;53.172;5.446;2022-09-12T06:38:46;15.50;1.00
52075;DHT22;38075;53.172;5.446;2022-09-12T06:41:13;15.50;1.00
52075;DHT22;38075;53.172;5.446;2022-09-12T06:43:40;15.50;1.00
52075;DHT22;38075;53.172;5.446;2022-09-12T06:46:07;15.60;1.00
52075;DHT22;38075;53.172;5.446;2022-09-12T06:48:33;15.80;1.00
52075;DHT22;38075;53.172;5.446;2022-09-12T06:51:04;15.60;1.00
52075;DHT22;38075;53.172;5.446;2022-09-12T06:53:32;15.60;1.00
52075;DHT22;38075;53.172;5.446;2022-09-12T06:56:00;16.00;1.00
52075;DHT22;38075;53.172;5.446;2022-09-12T06:58:26;16.20;1.00
52075;DHT22;38075;53.172;5.446;2022-09-12T07:00:56;16.00;1.00
52075;DHT22;38075;53.172;5.446;2022-09-12T07:03:25;16.10;1.00
52075;DHT22;38075;53.172;5.446;2022-09-12T07:05:51;16.10;1.00
52075;DHT22;38075;53.172;5.446;2022-09-12T07:08:16;16.30;1.00
52075;DHT22;38075;53.172;5.446;2022-09-12T07:10:42;16.50;1.00
52075;DHT22;38075;53.172;5.446;2022-09-12T07:13:07;16.50;1.00
52075;DHT22;38075;53.172;5.446;2022-09-12T07:15:34;16.60;1.00
52075;DHT22;38075;53.172;5.446;2022-09-12T07:18:00;16.70;1.00
52075;DHT22;38075;53.172;5.446;2022-09-12T07:20:26;16.90;1.00
52075;DHT22;38075;53.172;5.446;2022-09-12T07:22:52;17.10;1.00
52075;DHT22;38075;53.172;5.446;2022-09-12T07:25:17;17.20;1.00
52075;DHT22;38075;53.172;5.446;2022-09-12T07:27:43;17.20;1.00
52075;DHT22;38075;53.172;5.446;2022-09-12T07:30:09;17.30;1.00
52075;DHT22;38075;53.172;5.446;2022-09-12T07:32:34;17.40;99.90
52075;DHT22;38075;53.172;5.446;2022-09-12T07:35:00;17.60;99.90
52075;DHT22;38075;53.172;5.446;2022-09-12T07:37:29;17.80;99.90
52075;DHT22;38075;53.172;5.446;2022-09-12T07:39:55;18.10;99.90
52075;DHT22;38075;53.172;5.446;2022-09-12T07:42:21;17.90;99.90
52075;DHT22;38075;53.172;5.446;2022-09-12T07:44:47;18.00;99.90
52075;DHT22;38075;53.172;5.446;2022-09-12T07:47:12;18.10;99.90
52075;DHT22;38075;53.172;5.446;2022-09-12T07:49:38;18.10;99.90
52075;DHT22;38075;53.172;5.446;2022-09-12T07:52:03;18.10;99.90
52075;DHT22;38075;53.172;5.446;2022-09-12T07:54:29;18.20;99.90
52075;DHT22;38075;53.172;5.446;2022-09-12T07:56:57;18.20;99.90
52075;DHT22;38075;53.172;5.446;2022-09-12T07:59:23;18.20;99.90
52075;DHT22;38075;53.172;5.446;2022-09-12T08:01:49;18.20;99.90
52075;DHT22;38075;53.172;5.446;2022-09-12T08:04:14;18.20;99.90
52075;DHT22;38075;53.172;5.446;2022-09-12T08:06:40;18.60;99.90
52075;DHT22;38075;53.172;5.446;2022-09-12T08:09:05;18.40;99.90
52075;DHT22;38075;53.172;5.446;2022-09-12T08:11:32;18.30;99.90
52075;DHT22;38075;53.172;5.446;2022-09-12T08:13:58;18.40;99.90
52075;DHT22;38075;53.172;5.446;2022-09-12T08:16:28;18.50;99.90
52075;DHT22;38075;53.172;5.446;2022-09-12T08:18:55;18.50;99.90
52075;DHT22;38075;53.172;5.446;2022-09-12T08:21:26;18.50;99.90
52075;DHT22;38075;53.172;5.446;2022-09-12T08:23:53;18.50;99.90
52075;DHT22;38075;53.172;5.446;2022-09-12T08:26:19;18.60;99.90
52075;DHT22;38075;53.172;5.446;2022-09-12T08:28:45;18.60;99.90
52075;DHT22;38075;53.172;5.446;2022-09-12T08:31:13;18.60;99.90
52075;DHT22;38075;53.172;5.446;2022-09-12T08:33:40;18.60;99.90
52075;DHT22;38075;53.172;5.446;2022-09-12T08:43:00;18.90;99.90
52075;DHT22;38075;53.172;5.446;2022-09-12T08:45:56;19.10;99.90
52075;DHT22;38075;53.172;5.446;2022-09-12T08:48:25;19.40;99.90
52075;DHT22;38075;53.172;5.446;2022-09-12T08:50:50;19.50;99.90
52075;DHT22;38075;53.172;5.446;2022-09-12T08:53:20;19.60;99.90
52075;DHT22;38075;53.172;5.446;2022-09-12T08:55:58;19.80;99.90
52075;DHT22;38075;53.172;5.446;2022-09-12T08:58:26;19.90;99.90
52075;DHT22;38075;53.172;5.446;2022-09-12T09:12:08;20.80;99.90
52075;DHT22;38075;53.172;5.446;2022-09-12T09:17:28;21.00;99.90
52075;DHT22;38075;53.172;5.446;2022-09-12T09:22:52;21.30;99.90
52075;DHT22;38075;53.172;5.446;2022-09-12T09:25:25;21.10;99.90
52075;DHT22;38075;53.172;5.446;2022-09-12T09:28:04;21.10;99.90
52075;DHT22;38075;53.172;5.446;2022-09-12T09:30:33;20.90;99.90
52075;DHT22;38075;53.172;5.446;2022-09-12T09:33:01;21.20;99.90
52075;DHT22;38075;53.172;5.446;2022-09-12T09:35:43;21.30;99.90
52075;DHT22;38075;53.172;5.446;2022-09-12T09:38:42;21.30;99.90
52075;DHT22;38075;53.172;5.446;2022-09-12T09:43:45;21.40;99.90
52075;DHT22;38075;53.172;5.446;2022-09-12T09:46:11;21.60;99.90
52075;DHT22;38075;53.172;5.446;2022-09-12T09:48:42;21.80;99.90
52075;DHT22;38075;53.172;5.446;2022-09-12T09:51:08;21.70;99.60
52075;DHT22;38075;53.172;5.446;2022-09-12T09:56:34;22.00;95.80
52075;DHT22;38075;53.172;5.446;2022-09-12T09:59:15;22.00;94.70
52075;DHT22;38075;53.172;5.446;2022-09-12T10:04:19;22.00;93.80
52075;DHT22;38075;53.172;5.446;2022-09-12T10:06:45;21.90;91.20
52075;DHT22;38075;53.172;5.446;2022-09-12T10:11:38;22.40;96.50
52075;DHT22;38075;53.172;5.446;2022-09-12T10:14:04;22.30;94.00
52075;DHT22;38075;53.172;5.446;2022-09-12T10:16:47;22.40;93.00
52075;DHT22;38075;53.172;5.446;2022-09-12T10:19:21;22.60;91.90
52075;DHT22;38075;53.172;5.446;2022-09-12T10:21:53;22.60;86.90
52075;DHT22;38075;53.172;5.446;2022-09-12T10:26:53;22.50;82.30
52075;DHT22;38075;53.172;5.446;2022-09-12T10:29:29;22.60;80.60
52075;DHT22;38075;53.172;5.446;2022-09-12T10:32:02;22.60;78.80
52075;DHT22;38075;53.172;5.446;2022-09-12T10:34:43;22.70;75.30
52075;DHT22;38075;53.172;5.446;2022-09-12T10:37:17;22.80;77.20
52075;DHT22;38075;53.172;5.446;2022-09-12T10:39:53;22.80;76.60
52075;DHT22;38075;53.172;5.446;2022-09-12T10:42:40;22.90;74.30
52075;DHT22;38075;53.172;5.446;2022-09-12T10:45:17;22.70;71.00
52075;DHT22;38075;53.172;5.446;2022-09-12T10:47:45;22.60;72.60
52075;DHT22;38075;53.172;5.446;2022-09-12T10:50:31;22.40;74.90
52075;DHT22;38075;53.172;5.446;2022-09-12T10:58:46;22.40;75.10
52075;DHT22;38075;53.172;5.446;2022-09-12T11:03:47;22.50;78.40
52075;DHT22;38075;53.172;5.446;2022-09-12T11:06:20;22.40;78.40
52075;DHT22;38075;53.172;5.446;2022-09-12T11:22:29;23.20;77.60
52075;DHT22;38075;53.172;5.446;2022-09-12T11:25:09;23.00;73.40
52075;DHT22;38075;53.172;5.446;2022-09-12T11:30:13;23.10;75.50
52075;DHT22;38075;53.172;5.446;2022-09-12T11:35:34;23.20;75.90
52075;DHT22;38075;53.172;5.446;2022-09-12T11:40:54;23.20;72.90
52075;DHT22;38075;53.172;5.446;2022-09-12T11:44:16;23.00;72.10
52075;DHT22;38075;53.172;5.446;2022-09-12T11:46:27;22.90;70.40
52075;DHT22;38075;53.172;5.446;2022-09-12T11:54:37;23.50;70.70
52075;DHT22;38075;53.172;5.446;2022-09-12T12:00:01;23.50;70.80
52075;DHT22;38075;53.172;5.446;2022-09-12T12:02:30;23.60;70.40
52075;DHT22;38075;53.172;5.446;2022-09-12T12:08:09;23.90;69.40
52075;DHT22;38075;53.172;5.446;2022-09-12T12:10:41;23.90;70.80
52075;DHT22;38075;53.172;5.446;2022-09-12T12:13:31;23.90;69.50
52075;DHT22;38075;53.172;5.446;2022-09-12T12:16:00;23.80;66.70
52075;DHT22;38075;53.172;5.446;2022-09-12T12:18:29;23.90;67.10
52075;DHT22;38075;53.172;5.446;2022-09-12T12:20:57;23.90;66.30
52075;DHT22;38075;53.172;5.446;2022-09-12T12:23:40;23.90;65.40
52075;DHT22;38075;53.172;5.446;2022-09-12T12:29:11;23.70;63.30
52075;DHT22;38075;53.172;5.446;2022-09-12T12:34:30;23.70;65.40
52075;DHT22;38075;53.172;5.446;2022-09-12T12:36:57;23.70;64.70
52075;DHT22;38075;53.172;5.446;2022-09-12T12:41:59;23.50;67.10
52075;DHT22;38075;53.172;5.446;2022-09-12T12:47:22;23.50;64.80
52075;DHT22;38075;53.172;5.446;2022-09-12T12:50:00;23.50;63.80
52075;DHT22;38075;53.172;5.446;2022-09-12T12:52:29;23.50;63.20
52075;DHT22;38075;53.172;5.446;2022-09-12T12:55:00;23.60;63.70
52075;DHT22;38075;53.172;5.446;2022-09-12T12:57:53;23.70;64.00
52075;DHT22;38075;53.172;5.446;2022-09-12T13:02:55;23.70;61.90
52075;DHT22;38075;53.172;5.446;2022-09-12T13:05:24;23.80;60.90
52075;DHT22;38075;53.172;5.446;2022-09-12T13:08:10;23.70;61.50
52075;DHT22;38075;53.172;5.446;2022-09-12T13:11:04;23.50;59.60
52075;DHT22;38075;53.172;5.446;2022-09-12T13:13:59;23.40;60.10
52075;DHT22;38075;53.172;5.446;2022-09-12T13:16:36;23.40;59.30
52075;DHT22;38075;53.172;5.446;2022-09-12T13:19:11;23.40;58.60
52075;DHT22;38075;53.172;5.446;2022-09-12T13:21:38;23.40;58.70
52075;DHT22;38075;53.172;5.446;2022-09-12T13:24:12;23.40;59.60
52075;DHT22;38075;53.172;5.446;2022-09-12T13:26:43;23.50;58.50
52075;DHT22;38075;53.172;5.446;2022-09-12T13:29:22;23.60;58.40
52075;DHT22;38075;53.172;5.446;2022-09-12T13:31:55;23.60;58.80
52075;DHT22;38075;53.172;5.446;2022-09-12T13:34:26;23.70;59.20
52075;DHT22;38075;53.172;5.446;2022-09-12T13:40:04;23.60;57.00
52075;DHT22;38075;53.172;5.446;2022-09-12T13:42:43;23.70;57.60
52075;DHT22;38075;53.172;5.446;2022-09-12T13:45:26;23.70;58.70
52075;DHT22;38075;53.172;5.446;2022-09-12T13:47:58;23.60;57.20
52075;DHT22;38075;53.172;5.446;2022-09-12T13:50:55;23.60;58.60
52075;DHT22;38075;53.172;5.446;2022-09-12T13:53:24;23.80;58.00
52075;DHT22;38075;53.172;5.446;2022-09-12T13:55:56;23.90;58.40
52075;DHT22;38075;53.172;5.446;2022-09-12T13:58:28;23.90;59.00
52075;DHT22;38075;53.172;5.446;2022-09-12T14:03:48;23.90;57.40
52075;DHT22;38075;53.172;5.446;2022-09-12T14:06:50;23.90;56.80
52075;DHT22;38075;53.172;5.446;2022-09-12T14:09:23;23.70;56.00
52075;DHT22;38075;53.172;5.446;2022-09-12T14:11:50;23.70;56.00
52075;DHT22;38075;53.172;5.446;2022-09-12T14:14:40;23.60;55.80
52075;DHT22;38075;53.172;5.446;2022-09-12T14:17:37;23.70;55.50
52075;DHT22;38075;53.172;5.446;2022-09-12T14:20:13;23.50;54.10
52075;DHT22;38075;53.172;5.446;2022-09-12T14:22:39;23.70;54.70
52075;DHT22;38075;53.172;5.446;2022-09-12T14:25:16;23.60;54.80
52075;DHT22;38075;53.172;5.446;2022-09-12T14:27:45;23.70;55.00
52075;DHT22;38075;53.172;5.446;2022-09-12T14:30:28;23.40;54.10
52075;DHT22;38075;53.172;5.446;2022-09-12T14:35:39;23.50;53.10
52075;DHT22;38075;53.172;5.446;2022-09-12T14:38:30;23.50;54.10
52075;DHT22;38075;53.172;5.446;2022-09-12T14:41:00;23.50;54.00
52075;DHT22;38075;53.172;5.446;2022-09-12T14:43:29;23.60;54.90
52075;DHT22;38075;53.172;5.446;2022-09-12T14:46:00;23.60;55.60
52075;DHT22;38075;53.172;5.446;2022-09-12T14:48:32;23.60;58.50
52075;DHT22;38075;53.172;5.446;2022-09-12T14:50:59;23.60;55.10
52075;DHT22;38075;53.172;5.446;2022-09-12T14:53:36;23.50;54.60
52075;DHT22;38075;53.172;5.446;2022-09-12T14:56:12;23.50;54.30
52075;DHT22;38075;53.172;5.446;2022-09-12T14:58:41;23.30;54.10
52075;DHT22;38075;53.172;5.446;2022-09-12T15:06:38;23.20;55.50
52075;DHT22;38075;53.172;5.446;2022-09-12T15:09:09;23.30;54.90
52075;DHT22;38075;53.172;5.446;2022-09-12T15:11:38;23.20;58.40
52075;DHT22;38075;53.172;5.446;2022-09-12T15:14:14;23.30;54.90
52075;DHT22;38075;53.172;5.446;2022-09-12T15:16:40;23.20;54.80
52075;DHT22;38075;53.172;5.446;2022-09-12T15:19:06;23.10;54.80
52075;DHT22;38075;53.172;5.446;2022-09-12T15:21:34;23.00;54.90
52075;DHT22;38075;53.172;5.446;2022-09-12T15:23:59;22.90;54.80
52075;DHT22;38075;53.172;5.446;2022-09-12T15:26:27;22.80;55.10
52075;DHT22;38075;53.172;5.446;2022-09-12T15:28:54;22.70;55.80
52075;DHT22;38075;53.172;5.446;2022-09-12T15:31:25;22.70;55.60
52075;DHT22;38075;53.172;5.446;2022-09-12T15:33:52;22.60;55.80
52075;DHT22;38075;53.172;5.446;2022-09-12T15:36:19;22.60;55.50
52075;DHT22;38075;53.172;5.446;2022-09-12T15:38:47;22.50;55.20
52075;DHT22;38075;53.172;5.446;2022-09-12T15:41:33;22.40;54.70
52075;DHT22;38075;53.172;5.446;2022-09-12T15:44:08;22.40;55.10
52075;DHT22;38075;53.172;5.446;2022-09-12T15:46:35;22.40;55.60
52075;DHT22;38075;53.172;5.446;2022-09-12T15:49:01;22.50;56.30
52075;DHT22;38075;53.172;5.446;2022-09-12T15:51:26;22.50;56.40
52075;DHT22;38075;53.172;5.446;2022-09-12T15:53:52;22.40;56.50
52075;DHT22;38075;53.172;5.446;2022-09-12T15:56:20;22.30;57.80
52075;DHT22;38075;53.172;5.446;2022-09-12T15:58:46;22.30;58.30
52075;DHT22;38075;53.172;5.446;2022-09-12T16:01:13;22.30;57.90
52075;DHT22;38075;53.172;5.446;2022-09-12T16:03:39;22.20;58.10
52075;DHT22;38075;53.172;5.446;2022-09-12T16:06:06;22.10;58.80
52075;DHT22;38075;53.172;5.446;2022-09-12T16:08:35;22.00;59.10
52075;DHT22;38075;53.172;5.446;2022-09-12T16:11:17;21.90;59.70
52075;DHT22;38075;53.172;5.446;2022-09-12T16:13:44;21.80;62.30
52075;DHT22;38075;53.172;5.446;2022-09-12T16:16:10;22.00;61.90
52075;DHT22;38075;53.172;5.446;2022-09-12T16:18:38;21.70;61.90
52075;DHT22;38075;53.172;5.446;2022-09-12T16:21:04;21.70;61.10
52075;DHT22;38075;53.172;5.446;2022-09-12T16:23:29;21.70;60.90
52075;DHT22;38075;53.172;5.446;2022-09-12T16:26:00;21.60;61.40
52075;DHT22;38075;53.172;5.446;2022-09-12T16:28:26;21.60;62.00
52075;DHT22;38075;53.172;5.446;2022-09-12T16:31:03;21.50;62.00
52075;DHT22;38075;53.172;5.446;2022-09-12T16:33:30;21.40;62.80
52075;DHT22;38075;53.172;5.446;2022-09-12T16:36:08;21.30;62.40
52075;DHT22;38075;53.172;5.446;2022-09-12T16:38:42;21.20;62.90
52075;DHT22;38075;53.172;5.446;2022-09-12T16:41:08;21.20;62.90
52075;DHT22;38075;53.172;5.446;2022-09-12T16:43:34;21.10;63.10
52075;DHT22;38075;53.172;5.446;2022-09-12T16:46:07;21.00;63.10
52075;DHT22;38075;53.172;5.446;2022-09-12T16:48:34;21.10;65.30
52075;DHT22;38075;53.172;5.446;2022-09-12T16:51:02;21.00;66.00
52075;DHT22;38075;53.172;5.446;2022-09-12T16:53:33;20.90;67.20
52075;DHT22;38075;53.172;5.446;2022-09-12T16:55:59;20.90;68.20
52075;DHT22;38075;53.172;5.446;2022-09-12T16:58:25;20.90;69.70
52075;DHT22;38075;53.172;5.446;2022-09-12T17:01:17;20.80;72.50
52075;DHT22;38075;53.172;5.446;2022-09-12T17:03:43;20.80;75.00
52075;DHT22;38075;53.172;5.446;2022-09-12T17:06:11;20.60;79.70
52075;DHT22;38075;53.172;5.446;2022-09-12T17:08:43;20.60;82.10
52075;DHT22;38075;53.172;5.446;2022-09-12T17:11:09;20.60;86.50
52075;DHT22;38075;53.172;5.446;2022-09-12T17:13:36;20.50;90.20
52075;DHT22;38075;53.172;5.446;2022-09-12T17:16:09;20.50;87.50
52075;DHT22;38075;53.172;5.446;2022-09-12T17:18:40;20.50;87.30
52075;DHT22;38075;53.172;5.446;2022-09-12T17:21:06;20.50;89.20
52075;DHT22;38075;53.172;5.446;2022-09-12T17:23:32;20.50;91.10
52075;DHT22;38075;53.172;5.446;2022-09-12T17:25:58;20.50;91.00
52075;DHT22;38075;53.172;5.446;2022-09-12T17:28:24;20.60;91.10
52075;DHT22;38075;53.172;5.446;2022-09-12T17:30:57;20.50;91.30
52075;DHT22;38075;53.172;5.446;2022-09-12T17:33:23;20.50;91.50
52075;DHT22;38075;53.172;5.446;2022-09-12T17:35:49;20.40;91.90
52075;DHT22;38075;53.172;5.446;2022-09-12T17:38:15;20.40;91.90
52075;DHT22;38075;53.172;5.446;2022-09-12T17:40:41;20.40;92.50
52075;DHT22;38075;53.172;5.446;2022-09-12T17:43:06;20.40;93.30
52075;DHT22;38075;53.172;5.446;2022-09-12T17:45:32;20.30;93.30
52075;DHT22;38075;53.172;5.446;2022-09-12T17:47:58;20.40;93.90
52075;DHT22;38075;53.172;5.446;2022-09-12T17:50:23;20.30;95.10
52075;DHT22;38075;53.172;5.446;2022-09-12T17:52:49;20.30;96.00
52075;DHT22;38075;53.172;5.446;2022-09-12T17:55:16;20.20;96.80
52075;DHT22;38075;53.172;5.446;2022-09-12T17:57:41;20.20;99.90
52075;DHT22;38075;53.172;5.446;2022-09-12T18:00:10;20.10;98.70
52075;DHT22;38075;53.172;5.446;2022-09-12T18:02:39;20.20;99.90
52075;DHT22;38075;53.172;5.446;2022-09-12T18:05:04;20.10;99.90
52075;DHT22;38075;53.172;5.446;2022-09-12T18:07:31;20.20;99.90
52075;DHT22;38075;53.172;5.446;2022-09-12T18:09:56;20.10;99.90
52075;DHT22;38075;53.172;5.446;2022-09-12T18:12:23;20.20;99.90
52075;DHT22;38075;53.172;5.446;2022-09-12T18:14:49;20.10;99.90
52075;DHT22;38075;53.172;5.446;2022-09-12T18:17:15;20.10;99.90
52075;DHT22;38075;53.172;5.446;2022-09-12T18:19:41;20.10;99.90